Airfield :
LOGIN :

Register | Disclaimer

   EN    FR    IT 

 










Legend :    VFR   Marginal VFR   IFR   Intensive IFR   Very Intensive IFR
Visi :
Ceiling :
>= 8 km
>= 3000ft
5 to 8 km
1000 to 3000 ft
1500m to 5 km
500 to 1000 ft
800 to 1500m
200 to 500 ft
< 800m
< 200 ft
Symbols :   Thunderstorms  Fog  Heavy snow  Heavy precipitations  Wind > 20 kt
SIGMETs :     Misc.  Thunderstorms  Icing  Turbulence  Mountain Waves  Volcanic Ashes






- Airport Elevation : 20 ft


EBFN - Koksijde

CURRENT METAR :
  • 300225Z AUTO 18004KT 0800 FG OVC002/// 03/03 Q1023 AMB

EXPIRED METARs :
  • 300155Z AUTO 20004KT 0500 FG OVC002/// 03/03 Q1023 RED
  • 300125Z AUTO VRB02KT 0350 FG OVC002/// 03/03 Q1023 RED
  • 300055Z AUTO 20003KT 0400 FG OVC002/// 03/03 Q1023 RED
  • 300025Z AUTO 16003KT 0400 FG OVC002/// 03/03 Q1023 RED
  • 292355Z AUTO 17004KT 0200 FG OVC002/// 03/03 Q1023 RED

TAF TAF EBFN
Valid from the 29 at 19:00 until the 30 at 07:00 UTC


291541Z 2919/3007 VRB03KT 0200 FG BKN001
BECMG 3002/3004 1500 BR BKN002
BECMG 3003/3005 3000 BR BKN003
PROB30
TEMPO 3002/3007 0500 FG BKN001



MET'MAP, your aeronautical weather chart ! - Copyright ORBIFLY December 2007 - Disclaimer

ORBIFLY MET'MAP TEAM :

Programming & Development : Alexandra Zaïnal
Original concept : Baudouin d'Aumeries
Technical & hardware support : Manuel Goepfert
Assistance : Marc-Olivier Méhu




SOURCES & CREDITS :

   NOAA